Time;durP1;ratioP1;P1;durP2;ratioP2;P2;SDS_P1;SDS_P2;PMS_P1;PMS_P2;Temp;Humidity;BMP_temperature;BMP_pressure;BME280_temperature;BME280_humidity;BME280_pressure;Samples;Min_cycle;Max_cycle;Signal;HPM_P1;HPM_P2
2023/11/22 00:02:05;;;;;;;11.05;7.32;;;;;;;7.97;75.09;100893.31;4974523;28;20070;-87
2023/11/22 00:04:32;;;;;;;9.00;6.53;;;;;;;7.98;75.26;100900.25;4985258;28;20098;-87
2023/11/22 00:06:58;;;;;;;10.60;7.30;;;;;;;7.96;75.18;100907.28;4978207;28;20037;-87
2023/11/22 00:09:25;;;;;;;10.88;6.80;;;;;;;7.94;75.20;100906.50;4981492;28;20133;-87
2023/11/22 00:11:52;;;;;;;10.20;6.80;;;;;;;7.92;75.11;100901.28;4988393;28;20066;-87
2023/11/22 00:14:18;;;;;;;8.75;6.20;;;;;;;7.91;75.18;100902.19;4978627;28;20059;-87
2023/11/22 00:16:46;;;;;;;11.75;6.50;;;;;;;7.89;74.76;100906.59;4977627;28;20047;-87
2023/11/22 00:19:12;;;;;;;10.05;7.03;;;;;;;7.87;74.18;100908.41;5002434;28;20058;-87
2023/11/22 00:21:39;;;;;;;10.85;7.10;;;;;;;7.83;73.66;100904.16;4998820;28;20069;-87
2023/11/22 00:24:06;;;;;;;12.82;7.07;;;;;;;7.79;73.58;100902.53;5006994;28;20086;-87
2023/11/22 00:26:32;;;;;;;10.77;7.22;;;;;;;7.72;73.46;100907.06;4980405;28;20058;-87
2023/11/22 00:28:59;;;;;;;10.73;6.82;;;;;;;7.67;73.20;100915.03;4990232;28;20064;-87
2023/11/22 00:31:26;;;;;;;9.68;6.53;;;;;;;7.62;73.49;100918.72;4990121;28;20043;-87
2023/11/22 00:33:52;;;;;;;9.55;6.82;;;;;;;7.56;73.87;100922.34;4981028;28;20081;-87
2023/11/22 00:36:19;;;;;;;10.93;7.38;;;;;;;7.50;74.27;100909.38;4989115;28;20054;-87
2023/11/22 00:38:58;;;;;;;14.35;6.90;;;;;;;7.42;73.53;100915.69;4979748;28;20050;-87
2023/11/22 00:41:30;;;;;;;13.30;7.47;;;;;;;7.43;74.52;100917.41;4989462;28;20061;-86
2023/11/22 00:43:57;;;;;;;10.43;6.22;;;;;;;7.45;75.21;100921.75;4989436;28;20068;-87
2023/11/22 00:46:23;;;;;;;12.93;8.05;;;;;;;7.45;75.40;100929.59;5001704;28;20062;-87
2023/11/22 00:48:50;;;;;;;11.20;7.93;;;;;;;7.45;75.49;100937.47;5004113;28;20046;-87
2023/11/22 00:51:16;;;;;;;15.10;8.23;;;;;;;7.41;75.34;100929.66;4995097;28;20058;-87
2023/11/22 00:53:43;;;;;;;13.15;8.50;;;;;;;7.43;75.33;100940.13;5000042;28;20058;-87
2023/11/22 00:56:09;;;;;;;13.38;7.93;;;;;;;7.41;75.32;100927.03;4985593;28;20077;-87
2023/11/22 00:58:36;;;;;;;11.85;8.18;;;;;;;7.41;75.65;100929.66;4993130;28;20051;-87
2023/11/22 01:01:03;;;;;;;11.80;8.65;;;;;;;7.41;75.74;100928.81;5004864;28;20113;-87
2023/11/22 01:03:29;;;;;;;11.55;8.05;;;;;;;7.40;75.48;100932.34;4987870;28;20505;-87
2023/11/22 01:05:56;;;;;;;11.48;7.55;;;;;;;7.39;75.56;100934.09;4989575;28;20070;-87
2023/11/22 01:08:23;;;;;;;13.23;8.48;;;;;;;7.38;75.44;100929.75;5003495;28;20129;-87
2023/11/22 01:10:50;;;;;;;11.02;8.15;;;;;;;7.38;75.43;100928.91;5006005;28;20046;-87
2023/11/22 01:13:16;;;;;;;12.10;7.53;;;;;;;7.37;75.60;100938.50;5005587;28;20070;-86
2023/11/22 01:15:44;;;;;;;15.43;8.20;;;;;;;7.36;75.37;100939.41;4988342;28;20062;-87
2023/11/22 01:18:13;;;;;;;11.93;8.32;;;;;;;7.35;75.12;100945.53;4985883;28;20386;-87
2023/11/22 01:20:40;;;;;;;13.18;8.13;;;;;;;7.32;74.80;100943.00;4981444;28;20061;-87
2023/11/22 01:23:07;;;;;;;12.65;7.32;;;;;;;7.30;74.60;100944.81;5004600;28;20046;-87
2023/11/22 01:25:33;;;;;;;11.93;8.13;;;;;;;7.27;74.41;100955.34;5004543;28;20051;-87
2023/11/22 01:28:00;;;;;;;12.82;8.68;;;;;;;7.23;74.31;100951.94;4988714;28;20077;-87
2023/11/22 01:30:28;;;;;;;11.20;7.55;;;;;;;7.19;73.78;100949.44;4986177;28;20054;-87
2023/11/22 01:32:55;;;;;;;12.23;8.35;;;;;;;7.15;73.78;100951.28;4975605;28;20069;-87
2023/11/22 01:35:22;;;;;;;11.55;8.15;;;;;;;7.08;73.43;100955.78;5004300;28;20165;-86
2023/11/22 01:37:49;;;;;;;14.05;9.30;;;;;;;7.01;73.72;100954.19;4988168;28;20042;-88
2023/11/22 01:40:16;;;;;;;14.43;7.93;;;;;;;6.96;73.80;100958.69;4991718;28;20065;-86
2023/11/22 01:42:54;;;;;;;10.95;7.53;;;;;;;6.88;72.87;100966.72;4979648;28;20047;-86
2023/11/22 01:45:21;;;;;;;14.18;8.00;;;;;;;6.85;73.37;100969.38;5008196;28;20050;-87
2023/11/22 01:47:47;;;;;;;13.27;8.55;;;;;;;6.79;73.44;100970.38;5001243;28;20062;-87
2023/11/22 01:50:20;;;;;;;13.23;8.65;;;;;;;6.71;72.80;100983.63;4999588;28;20050;-87
2023/11/22 01:52:47;;;;;;;13.10;8.00;;;;;;;6.68;73.36;100990.66;4999323;28;20066;-87
2023/11/22 01:55:15;;;;;;;14.10;8.13;;;;;;;6.62;73.39;100991.69;4982789;28;20054;-87
2023/11/22 01:57:52;;;;;;;13.15;8.45;;;;;;;6.55;73.49;100993.56;5000339;28;20046;-87
2023/11/22 02:00:35;;;;;;;14.68;8.88;;;;;;;6.47;73.08;101005.94;4999465;28;20054;-87
2023/11/22 02:03:02;;;;;;;14.52;8.50;;;;;;;6.44;74.04;100999.00;5005111;28;20074;-87
2023/11/22 02:05:29;;;;;;;13.32;8.40;;;;;;;6.39;74.04;100992.97;4991846;28;20054;-86
2023/11/22 02:07:59;;;;;;;13.55;8.35;;;;;;;6.35;74.05;100997.41;4991738;28;20428;-87
2023/11/22 02:10:37;;;;;;;14.68;9.32;;;;;;;6.29;73.23;100992.31;4982843;28;20552;-87
2023/11/22 02:13:07;;;;;;;12.55;8.77;;;;;;;6.29;73.62;100999.28;4983479;28;20074;-87
2023/11/22 02:15:38;;;;;;;14.45;9.13;;;;;;;6.26;74.59;100997.59;4972717;28;20058;-87
2023/11/22 02:18:08;;;;;;;12.70;8.55;;;;;;;6.21;74.03;101000.28;4980584;28;20051;-87
2023/11/22 02:20:41;;;;;;;13.80;8.73;;;;;;;6.21;74.38;101004.66;5001112;28;20046;-86
2023/11/22 02:23:09;;;;;;;14.52;9.30;;;;;;;6.19;74.35;101009.06;4983478;28;20062;-87
2023/11/22 02:25:36;;;;;;;12.65;8.95;;;;;;;6.16;74.71;101003.91;4989019;28;20062;-87
2023/11/22 02:28:02;;;;;;;15.05;9.23;;;;;;;6.15;74.98;101002.16;5000334;28;20073;-87
2023/11/22 02:30:29;;;;;;;14.93;9.43;;;;;;;6.11;74.74;101004.84;5001228;28;20063;-87
2023/11/22 02:32:55;;;;;;;13.95;9.07;;;;;;;6.10;74.63;101005.72;4990618;28;20108;-87
2023/11/22 02:35:22;;;;;;;12.20;8.95;;;;;;;6.09;74.89;100996.16;5008276;28;20059;-86
2023/11/22 02:37:49;;;;;;;16.17;9.57;;;;;;;6.07;74.68;100994.47;4993155;28;20441;-87
2023/11/22 02:40:20;;;;;;;15.55;9.18;;;;;;;6.03;74.15;100991.06;5005130;28;20069;-87
2023/11/22 02:42:48;;;;;;;15.05;9.60;;;;;;;6.03;74.71;100988.44;5001376;28;20395;-87
2023/11/22 02:45:32;;;;;;;16.50;9.88;;;;;;;6.00;74.41;100978.88;5005565;28;20050;-87
2023/11/22 02:48:01;;;;;;;13.55;9.13;;;;;;;5.98;74.86;100983.25;4994889;28;20133;-87
2023/11/22 02:50:28;;;;;;;14.57;9.68;;;;;;;5.95;74.73;100985.06;4980472;28;20075;-87
2023/11/22 02:52:55;;;;;;;16.15;9.70;;;;;;;5.93;74.59;100992.94;4989469;28;20481;-87
2023/11/22 02:55:21;;;;;;;14.77;9.85;;;;;;;5.91;74.88;100996.47;4980781;28;20063;-87
2023/11/22 02:57:48;;;;;;;14.90;9.10;;;;;;;5.88;74.73;101007.84;4984460;28;20074;-86
2023/11/22 03:00:34;;;;;;;17.98;9.57;;;;;;;5.80;73.86;101001.88;4986347;28;20110;-86
2023/11/22 03:03:03;;;;;;;15.52;9.52;;;;;;;5.83;74.62;101004.44;4977885;28;20487;-87
2023/11/22 03:05:30;;;;;;;17.02;9.80;;;;;;;5.79;74.89;101008.84;5006649;28;20054;-86
2023/11/22 03:07:58;;;;;;;16.27;10.35;;;;;;;5.76;74.86;101006.28;4981757;28;20051;-87
2023/11/22 03:10:24;;;;;;;18.27;9.90;;;;;;;5.72;74.50;101010.69;4986622;28;20055;-88
2023/11/22 03:12:51;;;;;;;17.05;10.60;;;;;;;5.70;74.98;101016.81;4977295;28;20062;-88
2023/11/22 03:15:17;;;;;;;16.52;10.57;;;;;;;5.68;74.62;101013.41;4996177;28;20081;-88
2023/11/22 03:17:48;;;;;;;14.63;9.82;;;;;;;5.63;74.63;101021.28;5004389;28;20564;-87
2023/11/22 03:20:24;;;;;;;16.30;9.93;;;;;;;5.61;74.51;101021.31;4980214;28;20051;-87
2023/11/22 03:22:51;;;;;;;16.35;10.00;;;;;;;5.58;74.56;101018.75;4982017;28;20062;-87
2023/11/22 03:25:26;;;;;;;16.92;10.10;;;;;;;5.51;73.90;101017.13;4999101;28;20054;-88
2023/11/22 03:27:53;;;;;;;14.13;9.00;;;;;;;5.50;74.34;101014.53;5005990;28;20038;-87
2023/11/22 03:30:20;;;;;;;15.02;9.70;;;;;;;5.46;74.56;101008.50;4989737;28;20113;-88
2023/11/22 03:32:47;;;;;;;17.13;10.05;;;;;;;5.43;74.52;101016.38;4989790;28;20054;-87
2023/11/22 03:35:22;;;;;;;14.13;9.48;;;;;;;5.36;73.63;101020.84;4979943;28;20062;-88
2023/11/22 03:37:49;;;;;;;16.40;10.57;;;;;;;5.33;74.30;101023.47;4968385;28;20063;-87
2023/11/22 03:40:16;;;;;;;15.25;9.90;;;;;;;5.28;74.25;101031.41;4985224;28;20412;-87
2023/11/22 03:42:42;;;;;;;14.15;9.73;;;;;;;5.25;74.69;101049.72;4984545;28;20580;-87
2023/11/22 03:45:09;;;;;;;17.13;10.27;;;;;;;5.19;74.57;101058.47;4999623;28;20146;-87
2023/11/22 03:47:37;;;;;;;15.50;10.35;;;;;;;5.16;74.60;101063.75;5004378;28;20062;-87
2023/11/22 03:50:06;;;;;;;18.10;10.02;;;;;;;5.13;74.67;101076.84;4982002;28;20469;-87
2023/11/22 03:52:33;;;;;;;16.50;9.07;;;;;;;5.09;74.89;101075.16;4986834;28;20063;-87
2023/11/22 03:55:00;;;;;;;15.88;9.52;;;;;;;5.07;75.00;101089.97;4990936;28;20082;-87
2023/11/22 03:57:26;;;;;;;16.20;9.68;;;;;;;5.04;75.05;101096.09;5001876;28;20058;-87
2023/11/22 03:59:53;;;;;;;15.25;9.23;;;;;;;5.02;75.28;101105.69;4987906;28;20069;-87
2023/11/22 04:02:19;;;;;;;15.95;9.95;;;;;;;5.02;75.36;101105.69;5002759;28;20054;-87
2023/11/22 04:04:46;;;;;;;18.15;10.77;;;;;;;5.03;75.59;101107.41;4987027;28;20061;-87
2023/11/22 04:07:12;;;;;;;16.70;9.68;;;;;;;5.03;75.43;101103.94;4988351;28;20064;-87
2023/11/22 04:09:39;;;;;;;15.73;9.90;;;;;;;5.03;75.40;101099.59;4996318;28;20108;-87
2023/11/22 04:12:06;;;;;;;18.35;11.07;;;;;;;5.04;75.00;101095.22;4974813;28;20062;-87
2023/11/22 04:14:32;;;;;;;16.08;10.43;;;;;;;5.06;75.02;101085.63;4998999;28;20074;-87
2023/11/22 04:16:59;;;;;;;17.80;11.48;;;;;;;5.02;75.24;101071.75;5001082;28;20061;-87
2023/11/22 04:19:27;;;;;;;53.25;13.82;;;;;;;5.01;75.17;101070.00;5001566;28;20158;-87
2023/11/22 04:22:12;;;;;;;60.42;13.13;;;;;;;4.97;74.82;101068.31;4984847;28;20046;-87
2023/11/22 04:24:39;;;;;;;58.28;11.75;;;;;;;4.99;75.01;101063.09;4970882;28;20055;-87
2023/11/22 04:27:06;;;;;;;71.88;12.98;;;;;;;4.96;75.58;101069.22;4988037;28;20062;-87
2023/11/22 04:29:35;;;;;;;87.68;14.10;;;;;;;4.94;75.52;101060.56;5004743;28;20046;-87
2023/11/22 04:32:02;;;;;;;36.10;11.25;;;;;;;4.94;75.56;101068.38;4997163;28;20055;-87
2023/11/22 04:34:29;;;;;;;81.10;12.43;;;;;;;4.92;75.42;101052.75;4982429;28;20417;-88
2023/11/22 04:36:55;;;;;;;26.92;10.63;;;;;;;4.90;75.26;101056.25;4981061;28;20529;-87
2023/11/22 04:39:22;;;;;;;23.30;10.18;;;;;;;4.87;75.06;101061.50;5000400;28;20047;-87
2023/11/22 04:41:49;;;;;;;23.75;9.98;;;;;;;4.86;75.01;101059.78;4981830;28;20051;-87
2023/11/22 04:44:16;;;;;;;19.23;8.80;;;;;;;4.85;74.95;101068.50;4998776;28;20077;-87
2023/11/22 04:46:43;;;;;;;29.95;9.75;;;;;;;4.82;74.98;101074.59;4976790;28;20058;-87
2023/11/22 04:49:09;;;;;;;16.30;9.35;;;;;;;4.81;75.04;101080.69;4987061;28;20050;-87
2023/11/22 04:51:36;;;;;;;11.98;8.13;;;;;;;4.81;74.75;101088.53;4979286;28;20051;-87
2023/11/22 04:54:03;;;;;;;15.45;8.50;;;;;;;4.78;74.82;101084.22;4987365;28;20050;-88
2023/11/22 04:56:29;;;;;;;13.75;7.68;;;;;;;4.76;75.06;101093.81;4984653;28;20097;-87
2023/11/22 04:58:56;;;;;;;12.45;8.27;;;;;;;4.73;75.32;101104.28;5002881;28;20114;-88
2023/11/22 05:01:23;;;;;;;11.50;7.07;;;;;;;4.71;75.35;101113.84;4977676;28;20047;-87
2023/11/22 05:04:05;;;;;;;13.75;7.82;;;;;;;4.68;75.06;101121.72;4966972;28;20130;-88
2023/11/22 05:06:32;;;;;;;14.32;8.30;;;;;;;4.67;75.40;101122.56;4959711;28;20054;-88
2023/11/22 05:09:13;;;;;;;13.43;8.25;;;;;;;4.59;74.59;101112.22;4987316;28;20070;-87
2023/11/22 05:11:44;;;;;;;15.18;8.23;;;;;;;4.62;75.49;101121.75;4985498;28;20054;-87
2023/11/22 05:14:11;;;;;;;14.65;7.75;;;;;;;4.59;75.25;101124.44;4983600;28;20058;-87
2023/11/22 05:16:51;;;;;;;11.20;7.30;;;;;;;4.56;75.58;101120.06;4986927;28;20054;-87
2023/11/22 05:19:18;;;;;;;13.38;7.95;;;;;;;4.55;75.74;101118.34;4969301;28;20047;-87
2023/11/22 05:21:45;;;;;;;12.70;7.43;;;;;;;4.50;75.56;101121.03;4968044;28;20394;-87
2023/11/22 05:24:15;;;;;;;9.57;7.00;;;;;;;4.49;75.46;101129.69;4985180;28;20113;-88
2023/11/22 05:26:45;;;;;;;9.98;6.95;;;;;;;4.49;75.73;101123.66;5002583;28;20058;-87
2023/11/22 05:29:11;;;;;;;14.15;7.18;;;;;;;4.46;75.93;101127.16;4982297;28;20046;-86
2023/11/22 05:31:42;;;;;;;12.43;7.55;;;;;;;4.45;76.02;101127.16;4977857;28;20075;-87
2023/11/22 05:34:09;;;;;;;11.73;6.57;;;;;;;4.45;76.05;101127.16;4988680;28;20046;-88
2023/11/22 05:36:35;;;;;;;10.60;7.03;;;;;;;4.42;75.75;101115.88;4976953;28;20132;-87
2023/11/22 05:39:03;;;;;;;14.00;7.65;;;;;;;4.43;75.73;101120.22;4994736;28;20560;-86
2023/11/22 05:41:30;;;;;;;13.63;6.80;;;;;;;4.42;75.66;101109.81;4976340;28;20055;-88
2023/11/22 05:43:58;;;;;;;12.05;7.28;;;;;;;4.42;75.37;101104.59;4976514;28;20421;-88
2023/11/22 05:46:24;;;;;;;12.35;6.90;;;;;;;4.39;75.19;101099.41;4976212;28;20054;-88
2023/11/22 05:48:51;;;;;;;11.48;7.15;;;;;;;4.38;75.22;101106.34;4976372;28;20070;-88
2023/11/22 05:51:18;;;;;;;11.38;6.35;;;;;;;4.38;75.30;101108.94;4970217;28;20059;-87
2023/11/22 05:53:45;;;;;;;11.88;6.15;;;;;;;4.35;75.02;101101.19;4992306;28;20058;-88
2023/11/22 05:56:12;;;;;;;11.85;6.50;;;;;;;4.36;75.31;101107.25;4968535;28;20457;-87
2023/11/22 05:58:39;;;;;;;11.05;6.43;;;;;;;4.35;75.34;101106.38;4968456;28;20047;-87
2023/11/22 06:01:11;;;;;;;10.07;6.43;;;;;;;4.35;75.00;101106.38;4968396;28;20117;-88
2023/11/22 06:03:50;;;;;;;10.50;6.70;;;;;;;4.36;75.07;101113.31;4968796;28;20248;-87
2023/11/22 06:06:17;;;;;;;11.50;6.80;;;;;;;4.35;75.52;101118.56;4963279;28;20073;-87
2023/11/22 06:08:44;;;;;;;9.20;6.60;;;;;;;4.36;75.39;101125.47;4993294;28;20078;-87
2023/11/22 06:11:10;;;;;;;13.18;7.03;;;;;;;4.35;75.37;101116.81;4976435;28;20046;-87
2023/11/22 06:13:37;;;;;;;11.43;7.03;;;;;;;4.36;75.22;101130.69;4976015;28;20128;-87
2023/11/22 06:16:03;;;;;;;10.30;6.95;;;;;;;4.36;74.96;101133.31;4994456;28;20082;-87
2023/11/22 06:18:30;;;;;;;12.70;6.30;;;;;;;4.35;74.75;101139.41;4968485;28;20125;-87
2023/11/22 06:20:57;;;;;;;11.48;6.53;;;;;;;4.35;75.04;101144.63;4993333;28;20580;-87
2023/11/22 06:23:23;;;;;;;9.18;6.10;;;;;;;4.34;74.82;101140.28;4976499;28;20060;-87
2023/11/22 06:25:50;;;;;;;10.13;6.15;;;;;;;4.33;74.96;101144.63;4995777;28;20054;-87
2023/11/22 06:28:17;;;;;;;10.93;6.57;;;;;;;4.32;75.08;101144.63;4973842;28;20043;-87
2023/11/22 06:30:44;;;;;;;10.52;5.80;;;;;;;4.32;75.17;101140.31;4977211;28;20080;-87
2023/11/22 06:33:10;;;;;;;11.05;6.05;;;;;;;4.30;75.04;101136.84;4979831;28;20108;-87
2023/11/22 06:35:37;;;;;;;8.98;5.82;;;;;;;4.30;75.01;101140.31;4979710;28;20062;-87
2023/11/22 06:38:04;;;;;;;12.52;6.28;;;;;;;4.30;75.25;101135.09;4979769;28;20114;-87
2023/11/22 06:40:30;;;;;;;11.35;5.85;;;;;;;4.29;74.79;101138.59;4997306;28;20501;-87
2023/11/22 06:42:57;;;;;;;8.75;5.63;;;;;;;4.28;74.84;101142.06;4979137;28;20093;-87
2023/11/22 06:45:24;;;;;;;10.32;5.75;;;;;;;4.28;75.25;101134.25;4979783;28;20064;-87
2023/11/22 06:47:51;;;;;;;8.10;5.45;;;;;;;4.29;75.13;101143.78;4977222;28;20421;-87
2023/11/22 06:50:18;;;;;;;8.73;5.75;;;;;;;4.29;75.21;101142.91;4996299;28;20061;-87
2023/11/22 06:52:47;;;;;;;8.43;5.80;;;;;;;4.30;75.37;101148.13;4979559;28;20077;-87
2023/11/22 06:55:13;;;;;;;8.43;6.05;;;;;;;4.29;75.43;101145.53;4979236;28;20078;-87
2023/11/22 06:57:40;;;;;;;9.73;6.75;;;;;;;4.29;75.91;101151.63;4996548;28;20515;-88
2023/11/22 07:00:09;;;;;;;7.78;5.55;;;;;;;4.30;75.86;101155.94;4996756;28;20049;-87
2023/11/22 07:02:36;;;;;;;12.98;6.32;;;;;;;4.31;75.89;101162.03;4971185;28;20146;-87
2023/11/22 07:05:08;;;;;;;10.77;6.07;;;;;;;4.33;75.51;101160.28;4971801;28;20416;-87
2023/11/22 07:07:38;;;;;;;10.38;6.35;;;;;;;4.34;75.74;101172.41;4978982;28;20072;-88
2023/11/22 07:10:05;;;;;;;8.77;5.60;;;;;;;4.35;75.97;101176.78;4988016;28;20043;-87
2023/11/22 07:12:34;;;;;;;11.05;6.20;;;;;;;4.37;75.82;101174.16;4978951;28;20076;-87
2023/11/22 07:15:02;;;;;;;10.43;6.20;;;;;;;4.39;76.06;101180.22;4978869;28;20050;-87
2023/11/22 07:17:29;;;;;;;9.43;6.28;;;;;;;4.41;75.91;101184.53;4978665;28;20046;-87
2023/11/22 07:19:57;;;;;;;8.85;5.90;;;;;;;4.43;75.89;101184.53;4993143;28;20134;-87
2023/11/22 07:22:24;;;;;;;9.07;5.88;;;;;;;4.46;75.74;101186.25;4967390;28;20061;-87
2023/11/22 07:24:54;;;;;;;9.40;6.68;;;;;;;4.49;75.43;101186.22;4996964;28;20126;-86
2023/11/22 07:27:22;;;;;;;13.43;5.82;;;;;;;4.49;75.71;101181.84;4972262;28;20098;-88
2023/11/22 07:29:52;;;;;;;14.35;6.85;;;;;;;4.51;75.72;101187.94;4983951;28;20046;-88
2023/11/22 07:32:20;;;;;;;9.80;6.15;;;;;;;4.54;75.70;101181.84;4972109;28;20068;-87
2023/11/22 07:34:47;;;;;;;8.80;5.90;;;;;;;4.55;75.67;101192.25;4970013;28;20070;-88
2023/11/22 07:37:14;;;;;;;12.93;6.68;;;;;;;4.57;75.71;101192.25;4990480;28;20069;-87
2023/11/22 07:39:43;;;;;;;9.70;5.88;;;;;;;4.60;75.76;101194.81;4991549;28;20054;-87
2023/11/22 07:42:10;;;;;;;15.73;5.80;;;;;;;4.63;75.63;101183.50;4969515;28;20096;-88
2023/11/22 07:44:37;;;;;;;12.68;6.68;;;;;;;4.63;75.62;101175.69;4993970;28;20057;-88
2023/11/22 07:47:08;;;;;;;10.40;6.53;;;;;;;4.66;75.56;101165.19;4976316;28;20112;-88
2023/11/22 07:49:39;;;;;;;13.93;7.53;;;;;;;4.67;75.30;101154.75;4993344;28;20046;-88
2023/11/22 07:52:06;;;;;;;13.25;7.40;;;;;;;4.71;75.71;101157.34;4968479;28;20055;-87
2023/11/22 07:54:35;;;;;;;11.25;7.07;;;;;;;4.71;75.95;101145.13;4976068;28;20489;-88
2023/11/22 07:57:01;;;;;;;9.68;6.53;;;;;;;4.74;75.77;101145.13;4976292;28;20069;-88
2023/11/22 07:59:28;;;;;;;10.75;6.65;;;;;;;4.76;75.85;101143.38;4976131;28;20045;-88
2023/11/22 08:01:55;;;;;;;8.73;5.55;;;;;;;4.79;75.88;101134.66;4968005;28;20054;-88
2023/11/22 08:04:23;;;;;;;10.30;6.18;;;;;;;4.80;75.54;101144.19;4988109;28;20058;-88
2023/11/22 08:06:49;;;;;;;9.68;6.20;;;;;;;4.82;75.59;101145.91;4989847;28;20070;-88
2023/11/22 08:09:16;;;;;;;11.98;5.65;;;;;;;4.82;75.56;101153.72;4993017;28;20525;-88
2023/11/22 08:11:43;;;;;;;10.82;5.55;;;;;;;4.84;75.77;101166.78;4975939;28;20054;-88
2023/11/22 08:14:09;;;;;;;8.20;5.45;;;;;;;4.86;76.09;101179.81;4975960;28;20100;-88
2023/11/22 08:16:38;;;;;;;8.57;5.40;;;;;;;4.88;76.13;101185.84;4976604;28;20121;-87
2023/11/22 08:19:05;;;;;;;9.57;5.50;;;;;;;4.90;76.29;101187.56;4968083;28;20405;-87
2023/11/22 08:21:32;;;;;;;9.27;5.53;;;;;;;4.94;76.63;101206.69;4975894;28;20046;-87
2023/11/22 08:24:02;;;;;;;14.73;6.10;;;;;;;4.99;76.81;101207.50;4975362;28;20465;-87
2023/11/22 08:26:29;;;;;;;7.78;5.03;;;;;;;5.03;76.77;101219.63;4975710;28;20046;-87
2023/11/22 08:28:56;;;;;;;9.55;4.93;;;;;;;5.08;76.76;101232.63;4992914;28;20054;-87
2023/11/22 08:31:22;;;;;;;8.50;5.07;;;;;;;5.13;76.68;101235.19;4975283;28;20050;-87
2023/11/22 08:33:49;;;;;;;6.93;4.70;;;;;;;5.18;76.95;101242.09;4974429;28;20178;-87
2023/11/22 08:36:15;;;;;;;8.20;4.68;;;;;;;5.21;76.94;101226.38;4967830;28;20132;-87
2023/11/22 08:38:43;;;;;;;8.48;5.05;;;;;;;5.26;76.98;101223.75;4974810;28;20052;-87
2023/11/22 08:41:13;;;;;;;8.98;5.07;;;;;;;5.32;76.88;101231.53;4974820;28;20104;-87
2023/11/22 08:43:41;;;;;;;7.10;4.95;;;;;;;5.37;77.16;101243.63;4974867;28;20493;-87
2023/11/22 08:46:08;;;;;;;6.75;4.53;;;;;;;5.43;77.21;101248.81;4974705;28;20043;-87
2023/11/22 08:48:41;;;;;;;5.65;4.38;;;;;;;5.48;77.38;101242.66;4975188;28;20110;-87
2023/11/22 08:51:09;;;;;;;6.65;4.40;;;;;;;5.54;77.46;101230.41;4991814;28;20057;-87
2023/11/22 08:53:37;;;;;;;6.88;4.50;;;;;;;5.60;77.48;101227.69;4974752;28;20058;-87
2023/11/22 08:56:05;;;;;;;4.88;3.83;;;;;;;5.65;76.95;101217.19;4992124;28;20058;-87
2023/11/22 08:58:33;;;;;;;7.55;4.38;;;;;;;5.70;76.98;101220.59;4991943;28;20057;-87
2023/11/22 09:01:00;;;;;;;5.28;3.50;;;;;;;5.77;77.22;101226.63;4974865;28;20500;-87
2023/11/22 09:03:27;;;;;;;6.45;3.58;;;;;;;5.83;77.15;101224.78;4991800;28;20085;-88
2023/11/22 09:05:55;;;;;;;7.38;3.92;;;;;;;5.89;76.99;101217.75;4974789;28;20054;-87
2023/11/22 09:08:22;;;;;;;4.88;3.38;;;;;;;5.94;77.37;101206.34;4975152;28;20140;-87
2023/11/22 09:10:54;;;;;;;4.93;3.22;;;;;;;6.01;76.98;101204.50;4991569;28;20065;-87
2023/11/22 09:13:22;;;;;;;7.00;3.95;;;;;;;6.07;77.09;101204.47;4974203;28;20060;-87
2023/11/22 09:15:49;;;;;;;6.95;4.03;;;;;;;6.13;77.11;101193.03;4991919;28;20129;-87
2023/11/22 09:18:16;;;;;;;8.70;3.97;;;;;;;6.20;77.23;101183.38;4974681;28;20054;-87
2023/11/22 09:20:45;;;;;;;9.40;4.38;;;;;;;6.24;77.14;101193.75;4991834;28;20057;-87
2023/11/22 09:23:14;;;;;;;9.13;4.93;;;;;;;6.30;77.01;101197.13;4991253;28;20050;-87
2023/11/22 09:25:41;;;;;;;8.30;5.20;;;;;;;6.36;77.25;101215.38;4974451;28;20108;-87
2023/11/22 09:28:08;;;;;;;8.68;4.45;;;;;;;6.39;77.09;101218.78;4974542;28;20058;-87
2023/11/22 09:30:38;;;;;;;7.95;4.90;;;;;;;6.46;76.47;101231.75;4991628;28;20481;-87
2023/11/22 09:33:07;;;;;;;10.55;4.88;;;;;;;6.49;76.20;101229.97;4991439;28;20066;-87
2023/11/22 09:35:35;;;;;;;10.02;4.75;;;;;;;6.53;76.52;101232.53;4991799;28;20058;-87
2023/11/22 09:38:04;;;;;;;5.55;4.15;;;;;;;6.58;76.18;101231.56;4974173;28;20390;-87
2023/11/22 09:40:33;;;;;;;8.23;4.78;;;;;;;6.63;76.08;101231.50;4969031;28;20051;-87
2023/11/22 09:43:02;;;;;;;7.13;4.28;;;;;;;6.65;75.94;101234.94;4988142;28;20055;-87
2023/11/22 09:45:30;;;;;;;7.32;4.88;;;;;;;6.70;75.93;101240.09;4974313;28;20060;-87
2023/11/22 09:47:57;;;;;;;7.13;4.43;;;;;;;6.73;76.10;101248.75;4991458;28;20055;-87
2023/11/22 09:50:42;;;;;;;8.75;4.45;;;;;;;6.74;73.38;101245.28;4991527;28;20448;-87
2023/11/22 09:53:36;;;;;;;7.18;4.45;;;;;;;6.80;73.57;101249.50;4974291;28;20560;-88
2023/11/22 09:56:06;;;;;;;6.93;4.30;;;;;;;6.86;75.81;101249.44;4966039;28;20081;-87
2023/11/22 09:58:34;;;;;;;8.13;3.95;;;;;;;6.91;75.96;101246.72;4991637;28;20046;-87
2023/11/22 10:01:01;;;;;;;5.97;3.92;;;;;;;6.94;75.85;101243.16;4976300;28;20062;-87
2023/11/22 10:03:30;;;;;;;5.80;4.07;;;;;;;6.99;75.97;101243.97;4977578;28;20054;-87
2023/11/22 10:06:04;;;;;;;7.70;4.25;;;;;;;7.01;75.85;101234.31;4995217;28;20441;-87
2023/11/22 10:08:31;;;;;;;10.02;4.85;;;;;;;7.06;75.94;101232.47;4977915;28;20069;-87
2023/11/22 10:10:59;;;;;;;7.82;4.53;;;;;;;7.12;76.00;101235.00;4994782;28;20117;-88
2023/11/22 10:13:26;;;;;;;5.18;3.28;;;;;;;7.16;75.21;101231.44;4977885;28;20069;-87
2023/11/22 10:15:54;;;;;;;6.15;3.53;;;;;;;7.21;75.36;101239.19;4995222;28;20416;-87
2023/11/22 10:18:21;;;;;;;4.78;3.15;;;;;;;7.26;75.29;101239.13;4969959;28;20054;-87
2023/11/22 10:20:52;;;;;;;5.57;3.25;;;;;;;7.29;75.50;101249.53;4977554;28;20050;-87
2023/11/22 10:23:24;;;;;;;4.57;3.00;;;;;;;7.35;75.46;101238.94;4994369;28;20050;-87
2023/11/22 10:25:53;;;;;;;7.20;2.80;;;;;;;7.40;74.87;101231.84;4977258;28;20497;-87
2023/11/22 10:28:20;;;;;;;5.93;3.20;;;;;;;7.48;75.22;101218.56;4991354;28;20066;-87
2023/11/22 10:30:49;;;;;;;4.38;2.92;;;;;;;7.53;75.06;101221.13;4990158;28;20047;-87
2023/11/22 10:33:16;;;;;;;4.68;3.35;;;;;;;7.59;74.80;101222.75;4976843;28;20501;-88
2023/11/22 10:35:48;;;;;;;6.47;3.80;;;;;;;7.60;72.70;101217.47;4977233;28;20054;-88
2023/11/22 10:38:20;;;;;;;7.22;3.80;;;;;;;7.66;72.66;101229.56;4976979;28;20076;-87
2023/11/22 10:40:47;;;;;;;4.28;2.97;;;;;;;7.71;74.64;101230.34;4994727;28;20046;-87
2023/11/22 10:43:16;;;;;;;6.15;3.33;;;;;;;7.74;74.49;101224.19;4976770;28;20058;-87
2023/11/22 10:45:51;;;;;;;5.75;3.90;;;;;;;7.76;74.28;101217.13;4977236;28;20112;-87
2023/11/22 10:48:18;;;;;;;5.35;3.55;;;;;;;7.81;74.20;101216.16;4976906;28;20054;-87
2023/11/22 10:50:46;;;;;;;5.70;3.53;;;;;;;7.85;74.37;101211.69;4976937;28;20424;-88
2023/11/22 10:53:20;;;;;;;6.03;3.97;;;;;;;7.89;73.01;101207.25;4976875;28;20066;-87
2023/11/22 10:55:48;;;;;;;6.43;4.22;;;;;;;7.93;73.89;101207.13;4976898;28;20049;-88
2023/11/22 10:58:15;;;;;;;6.18;4.07;;;;;;;7.98;74.26;101204.44;4994089;28;20058;-88
2023/11/22 11:00:43;;;;;;;6.70;3.40;;;;;;;8.01;73.78;101204.38;4976867;28;20470;-87
2023/11/22 11:03:24;;;;;;;6.55;3.85;;;;;;;8.01;70.46;101206.13;4976695;28;20511;-87
2023/11/22 11:05:57;;;;;;;5.05;3.70;;;;;;;8.05;71.60;101197.28;4976813;28;20089;-87
2023/11/22 11:08:28;;;;;;;6.50;3.65;;;;;;;8.06;70.39;101183.25;4985996;28;20428;-88
2023/11/22 11:10:58;;;;;;;4.90;3.47;;;;;;;8.07;72.91;101190.22;4993841;28;20042;-88
2023/11/22 11:13:25;;;;;;;5.90;3.85;;;;;;;8.07;73.06;101193.72;4993703;28;20046;-87
2023/11/22 11:15:53;;;;;;;5.57;3.40;;;;;;;8.06;72.92;101205.13;4993768;28;20054;-87
2023/11/22 11:18:21;;;;;;;5.50;3.30;;;;;;;8.10;73.58;101200.66;4968718;28;20480;-87
2023/11/22 11:20:53;;;;;;;6.47;4.00;;;;;;;8.11;71.70;101193.66;4994271;28;20042;-88
2023/11/22 11:23:22;;;;;;;7.80;3.40;;;;;;;8.15;73.49;101177.78;4993777;28;20473;-87
2023/11/22 11:25:49;;;;;;;5.38;3.42;;;;;;;8.20;73.17;101177.69;4976450;28;20089;-88
2023/11/22 11:28:16;;;;;;;4.80;3.50;;;;;;;8.22;73.11;101162.75;4976199;28;20475;-88
2023/11/22 11:30:48;;;;;;;3.80;3.22;;;;;;;8.26;72.69;101171.44;4976394;28;20047;-88
2023/11/22 11:33:26;;;;;;;4.90;2.90;;;;;;;8.30;70.72;101159.97;4975989;28;20524;-88